sensor_id;sensor_type;location;lat;lon;timestamp;temperature;humidity
17236;DHT22;8734;59.272;17.780;2022-07-17T00:00:17;14.10;99.90
17236;DHT22;8734;59.272;17.780;2022-07-17T00:02:46;14.00;99.90
17236;DHT22;8734;59.272;17.780;2022-07-17T00:05:16;14.10;99.90
17236;DHT22;8734;59.272;17.780;2022-07-17T00:07:46;14.30;99.90
17236;DHT22;8734;59.272;17.780;2022-07-17T00:10:16;14.30;99.90
17236;DHT22;8734;59.272;17.780;2022-07-17T00:12:45;14.40;99.90
17236;DHT22;8734;59.272;17.780;2022-07-17T00:15:13;14.40;99.90
17236;DHT22;8734;59.272;17.780;2022-07-17T00:17:41;14.40;99.90
17236;DHT22;8734;59.272;17.780;2022-07-17T00:20:10;14.40;99.90
17236;DHT22;8734;59.272;17.780;2022-07-17T00:22:39;14.40;99.90
17236;DHT22;8734;59.272;17.780;2022-07-17T00:25:11;14.40;99.90
17236;DHT22;8734;59.272;17.780;2022-07-17T00:27:40;14.50;99.90
17236;DHT22;8734;59.272;17.780;2022-07-17T00:30:09;14.50;99.90
17236;DHT22;8734;59.272;17.780;2022-07-17T00:32:40;14.40;99.90
17236;DHT22;8734;59.272;17.780;2022-07-17T00:35:09;14.40;99.90
17236;DHT22;8734;59.272;17.780;2022-07-17T00:37:38;14.50;99.90
17236;DHT22;8734;59.272;17.780;2022-07-17T00:40:10;14.60;99.90
17236;DHT22;8734;59.272;17.780;2022-07-17T00:42:41;14.60;99.90
17236;DHT22;8734;59.272;17.780;2022-07-17T00:45:10;14.50;99.90
17236;DHT22;8734;59.272;17.780;2022-07-17T00:47:49;14.50;99.90
17236;DHT22;8734;59.272;17.780;2022-07-17T00:50:18;14.50;99.90
17236;DHT22;8734;59.272;17.780;2022-07-17T00:52:47;14.50;99.90
17236;DHT22;8734;59.272;17.780;2022-07-17T00:55:17;14.50;99.90
17236;DHT22;8734;59.272;17.780;2022-07-17T00:58:08;14.40;99.90
17236;DHT22;8734;59.272;17.780;2022-07-17T01:00:38;14.30;99.90
17236;DHT22;8734;59.272;17.780;2022-07-17T01:03:09;14.20;99.90
17236;DHT22;8734;59.272;17.780;2022-07-17T01:05:37;14.10;99.90
17236;DHT22;8734;59.272;17.780;2022-07-17T01:08:06;14.10;99.90
17236;DHT22;8734;59.272;17.780;2022-07-17T01:10:34;14.10;99.90
17236;DHT22;8734;59.272;17.780;2022-07-17T01:13:03;14.00;99.90
17236;DHT22;8734;59.272;17.780;2022-07-17T01:15:36;14.00;99.90
17236;DHT22;8734;59.272;17.780;2022-07-17T01:18:05;13.90;99.90
17236;DHT22;8734;59.272;17.780;2022-07-17T01:20:36;13.90;99.90
17236;DHT22;8734;59.272;17.780;2022-07-17T01:23:06;13.90;99.90
17236;DHT22;8734;59.272;17.780;2022-07-17T01:25:35;13.80;99.90
17236;DHT22;8734;59.272;17.780;2022-07-17T01:28:04;13.70;99.90
17236;DHT22;8734;59.272;17.780;2022-07-17T01:30:33;13.70;99.90
17236;DHT22;8734;59.272;17.780;2022-07-17T01:33:03;13.60;99.90
17236;DHT22;8734;59.272;17.780;2022-07-17T01:35:31;13.50;99.90
17236;DHT22;8734;59.272;17.780;2022-07-17T01:38:00;13.50;99.90
17236;DHT22;8734;59.272;17.780;2022-07-17T01:40:30;13.40;99.90
17236;DHT22;8734;59.272;17.780;2022-07-17T01:42:58;13.30;99.90
17236;DHT22;8734;59.272;17.780;2022-07-17T01:45:27;13.30;99.90
17236;DHT22;8734;59.272;17.780;2022-07-17T01:47:55;13.30;99.90
17236;DHT22;8734;59.272;17.780;2022-07-17T01:50:23;13.30;99.90
17236;DHT22;8734;59.272;17.780;2022-07-17T01:52:52;13.20;99.90
17236;DHT22;8734;59.272;17.780;2022-07-17T01:55:20;13.20;99.90
17236;DHT22;8734;59.272;17.780;2022-07-17T01:57:50;13.20;99.90
17236;DHT22;8734;59.272;17.780;2022-07-17T02:00:19;13.20;99.90
17236;DHT22;8734;59.272;17.780;2022-07-17T02:02:51;13.10;99.90
17236;DHT22;8734;59.272;17.780;2022-07-17T02:05:19;13.10;99.90
17236;DHT22;8734;59.272;17.780;2022-07-17T02:07:49;13.00;99.90
17236;DHT22;8734;59.272;17.780;2022-07-17T02:10:18;13.00;99.90
17236;DHT22;8734;59.272;17.780;2022-07-17T02:12:46;12.90;99.90
17236;DHT22;8734;59.272;17.780;2022-07-17T02:15:16;13.00;99.90
17236;DHT22;8734;59.272;17.780;2022-07-17T02:17:44;12.90;99.90
17236;DHT22;8734;59.272;17.780;2022-07-17T02:20:13;12.90;99.90
17236;DHT22;8734;59.272;17.780;2022-07-17T02:22:41;12.90;99.90
17236;DHT22;8734;59.272;17.780;2022-07-17T02:25:10;12.90;99.90
17236;DHT22;8734;59.272;17.780;2022-07-17T02:27:40;12.90;99.90
17236;DHT22;8734;59.272;17.780;2022-07-17T02:30:11;13.00;99.90
17236;DHT22;8734;59.272;17.780;2022-07-17T02:32:42;13.00;99.90
17236;DHT22;8734;59.272;17.780;2022-07-17T02:35:12;13.00;99.90
17236;DHT22;8734;59.272;17.780;2022-07-17T02:37:41;13.00;99.90
17236;DHT22;8734;59.272;17.780;2022-07-17T02:40:11;13.00;99.90
17236;DHT22;8734;59.272;17.780;2022-07-17T02:42:40;13.00;99.90
17236;DHT22;8734;59.272;17.780;2022-07-17T02:45:09;13.00;99.90
17236;DHT22;8734;59.272;17.780;2022-07-17T02:47:37;13.00;99.90
17236;DHT22;8734;59.272;17.780;2022-07-17T02:50:08;13.00;99.90
17236;DHT22;8734;59.272;17.780;2022-07-17T02:52:37;13.00;99.90
17236;DHT22;8734;59.272;17.780;2022-07-17T02:55:06;13.00;99.90
17236;DHT22;8734;59.272;17.780;2022-07-17T02:57:35;13.10;99.90
17236;DHT22;8734;59.272;17.780;2022-07-17T03:00:06;13.10;99.90
17236;DHT22;8734;59.272;17.780;2022-07-17T03:02:36;13.10;99.90
17236;DHT22;8734;59.272;17.780;2022-07-17T03:05:07;13.20;99.90
17236;DHT22;8734;59.272;17.780;2022-07-17T03:07:35;13.20;99.90
17236;DHT22;8734;59.272;17.780;2022-07-17T03:10:05;13.20;99.90
17236;DHT22;8734;59.272;17.780;2022-07-17T03:12:33;13.20;99.90
17236;DHT22;8734;59.272;17.780;2022-07-17T03:15:03;13.20;99.90
17236;DHT22;8734;59.272;17.780;2022-07-17T03:17:31;13.30;99.90
17236;DHT22;8734;59.272;17.780;2022-07-17T03:20:00;13.30;99.90
17236;DHT22;8734;59.272;17.780;2022-07-17T03:22:30;13.30;99.90
17236;DHT22;8734;59.272;17.780;2022-07-17T03:24:58;13.30;99.90
17236;DHT22;8734;59.272;17.780;2022-07-17T03:27:26;13.40;99.90
17236;DHT22;8734;59.272;17.780;2022-07-17T03:29:55;13.50;99.90
17236;DHT22;8734;59.272;17.780;2022-07-17T03:32:23;13.60;99.90
17236;DHT22;8734;59.272;17.780;2022-07-17T03:34:52;13.70;99.90
17236;DHT22;8734;59.272;17.780;2022-07-17T03:37:20;13.80;99.90
17236;DHT22;8734;59.272;17.780;2022-07-17T03:39:50;13.90;99.90
17236;DHT22;8734;59.272;17.780;2022-07-17T03:42:19;14.00;99.90
17236;DHT22;8734;59.272;17.780;2022-07-17T03:44:47;14.00;99.90
17236;DHT22;8734;59.272;17.780;2022-07-17T03:47:16;14.00;99.90
17236;DHT22;8734;59.272;17.780;2022-07-17T03:49:45;14.00;99.90
17236;DHT22;8734;59.272;17.780;2022-07-17T03:52:13;14.00;99.90
17236;DHT22;8734;59.272;17.780;2022-07-17T03:54:41;13.90;99.90
17236;DHT22;8734;59.272;17.780;2022-07-17T03:57:12;13.90;99.90
17236;DHT22;8734;59.272;17.780;2022-07-17T03:59:40;13.90;99.90
17236;DHT22;8734;59.272;17.780;2022-07-17T04:02:08;13.90;99.90
17236;DHT22;8734;59.272;17.780;2022-07-17T04:04:37;14.00;99.90
17236;DHT22;8734;59.272;17.780;2022-07-17T04:07:05;14.00;99.90
17236;DHT22;8734;59.272;17.780;2022-07-17T04:09:55;14.00;99.90
17236;DHT22;8734;59.272;17.780;2022-07-17T04:12:26;14.00;99.90
17236;DHT22;8734;59.272;17.780;2022-07-17T04:14:54;14.00;99.90
17236;DHT22;8734;59.272;17.780;2022-07-17T04:17:22;14.00;99.90
17236;DHT22;8734;59.272;17.780;2022-07-17T04:19:51;14.00;99.90
17236;DHT22;8734;59.272;17.780;2022-07-17T04:22:19;14.00;99.90
17236;DHT22;8734;59.272;17.780;2022-07-17T04:24:48;14.00;99.90
17236;DHT22;8734;59.272;17.780;2022-07-17T04:27:17;14.00;99.90
17236;DHT22;8734;59.272;17.780;2022-07-17T04:29:47;14.00;99.90
17236;DHT22;8734;59.272;17.780;2022-07-17T04:32:16;14.00;99.90
17236;DHT22;8734;59.272;17.780;2022-07-17T04:34:44;14.00;99.90
17236;DHT22;8734;59.272;17.780;2022-07-17T04:37:12;14.00;99.90
17236;DHT22;8734;59.272;17.780;2022-07-17T04:39:41;14.00;99.90
17236;DHT22;8734;59.272;17.780;2022-07-17T04:42:09;14.10;99.90
17236;DHT22;8734;59.272;17.780;2022-07-17T04:44:38;14.10;99.90
17236;DHT22;8734;59.272;17.780;2022-07-17T04:47:08;14.20;99.90
17236;DHT22;8734;59.272;17.780;2022-07-17T04:49:36;14.30;99.90
17236;DHT22;8734;59.272;17.780;2022-07-17T04:52:04;14.30;99.90
17236;DHT22;8734;59.272;17.780;2022-07-17T04:54:33;14.40;99.90
17236;DHT22;8734;59.272;17.780;2022-07-17T04:57:01;14.40;99.90
17236;DHT22;8734;59.272;17.780;2022-07-17T04:59:29;14.40;99.90
17236;DHT22;8734;59.272;17.780;2022-07-17T05:01:59;14.40;99.90
17236;DHT22;8734;59.272;17.780;2022-07-17T05:04:28;14.40;99.90
17236;DHT22;8734;59.272;17.780;2022-07-17T05:06:57;14.40;99.90
17236;DHT22;8734;59.272;17.780;2022-07-17T05:09:25;14.40;99.90
17236;DHT22;8734;59.272;17.780;2022-07-17T05:11:54;14.50;99.90
17236;DHT22;8734;59.272;17.780;2022-07-17T05:14:22;14.50;99.90
17236;DHT22;8734;59.272;17.780;2022-07-17T05:16:51;14.50;99.90
17236;DHT22;8734;59.272;17.780;2022-07-17T05:19:19;14.50;99.90
17236;DHT22;8734;59.272;17.780;2022-07-17T05:21:49;14.60;99.90
17236;DHT22;8734;59.272;17.780;2022-07-17T05:24:18;14.60;99.90
17236;DHT22;8734;59.272;17.780;2022-07-17T05:26:46;14.60;99.90
17236;DHT22;8734;59.272;17.780;2022-07-17T05:29:15;14.60;99.90
17236;DHT22;8734;59.272;17.780;2022-07-17T05:31:43;14.60;99.90
17236;DHT22;8734;59.272;17.780;2022-07-17T05:34:11;14.60;99.90
17236;DHT22;8734;59.272;17.780;2022-07-17T05:36:40;14.70;99.90
17236;DHT22;8734;59.272;17.780;2022-07-17T05:39:10;14.80;99.90
17236;DHT22;8734;59.272;17.780;2022-07-17T05:41:38;14.80;99.90
17236;DHT22;8734;59.272;17.780;2022-07-17T05:44:07;14.80;99.90
17236;DHT22;8734;59.272;17.780;2022-07-17T05:46:35;14.90;99.90
17236;DHT22;8734;59.272;17.780;2022-07-17T05:49:04;14.80;99.90
17236;DHT22;8734;59.272;17.780;2022-07-17T05:51:33;14.90;99.90
17236;DHT22;8734;59.272;17.780;2022-07-17T05:54:01;14.90;99.90
17236;DHT22;8734;59.272;17.780;2022-07-17T05:56:31;14.90;99.90
17236;DHT22;8734;59.272;17.780;2022-07-17T05:58:59;14.80;99.90
17236;DHT22;8734;59.272;17.780;2022-07-17T06:01:27;14.90;99.90
17236;DHT22;8734;59.272;17.780;2022-07-17T06:03:56;15.00;99.90
17236;DHT22;8734;59.272;17.780;2022-07-17T06:06:25;15.10;99.90
17236;DHT22;8734;59.272;17.780;2022-07-17T06:08:54;15.10;99.90
17236;DHT22;8734;59.272;17.780;2022-07-17T06:11:22;15.20;99.90
17236;DHT22;8734;59.272;17.780;2022-07-17T06:13:58;15.30;99.90
17236;DHT22;8734;59.272;17.780;2022-07-17T06:16:27;15.40;99.90
17236;DHT22;8734;59.272;17.780;2022-07-17T06:18:55;15.60;99.90
17236;DHT22;8734;59.272;17.780;2022-07-17T06:21:23;15.70;99.90
17236;DHT22;8734;59.272;17.780;2022-07-17T06:23:52;15.70;99.90
17236;DHT22;8734;59.272;17.780;2022-07-17T06:26:21;15.70;99.90
17236;DHT22;8734;59.272;17.780;2022-07-17T06:28:49;15.70;99.90
17236;DHT22;8734;59.272;17.780;2022-07-17T06:31:19;15.70;99.90
17236;DHT22;8734;59.272;17.780;2022-07-17T06:33:48;15.90;99.90
17236;DHT22;8734;59.272;17.780;2022-07-17T06:36:17;15.90;99.90
17236;DHT22;8734;59.272;17.780;2022-07-17T06:38:45;15.90;99.90
17236;DHT22;8734;59.272;17.780;2022-07-17T06:41:13;16.00;99.90
17236;DHT22;8734;59.272;17.780;2022-07-17T06:43:42;16.10;99.90
17236;DHT22;8734;59.272;17.780;2022-07-17T06:46:10;16.30;99.90
17236;DHT22;8734;59.272;17.780;2022-07-17T06:48:40;16.40;99.90
17236;DHT22;8734;59.272;17.780;2022-07-17T06:51:08;16.50;99.90
17236;DHT22;8734;59.272;17.780;2022-07-17T06:53:37;16.50;99.90
17236;DHT22;8734;59.272;17.780;2022-07-17T06:56:05;16.60;99.90
17236;DHT22;8734;59.272;17.780;2022-07-17T06:58:34;16.60;99.90
17236;DHT22;8734;59.272;17.780;2022-07-17T07:01:02;16.90;99.90
17236;DHT22;8734;59.272;17.780;2022-07-17T07:03:31;17.00;99.90
17236;DHT22;8734;59.272;17.780;2022-07-17T07:06:00;17.00;99.90
17236;DHT22;8734;59.272;17.780;2022-07-17T07:08:29;17.10;99.90
17236;DHT22;8734;59.272;17.780;2022-07-17T07:10:58;17.40;99.90
17236;DHT22;8734;59.272;17.780;2022-07-17T07:13:26;17.50;99.90
17236;DHT22;8734;59.272;17.780;2022-07-17T07:15:55;17.60;99.90
17236;DHT22;8734;59.272;17.780;2022-07-17T07:18:23;17.70;99.90
17236;DHT22;8734;59.272;17.780;2022-07-17T07:20:51;17.60;99.90
17236;DHT22;8734;59.272;17.780;2022-07-17T07:23:22;17.50;99.90
17236;DHT22;8734;59.272;17.780;2022-07-17T07:25:51;17.70;99.90
17236;DHT22;8734;59.272;17.780;2022-07-17T07:28:19;17.90;99.90
17236;DHT22;8734;59.272;17.780;2022-07-17T07:30:48;18.10;99.90
17236;DHT22;8734;59.272;17.780;2022-07-17T07:33:17;18.30;99.90
17236;DHT22;8734;59.272;17.780;2022-07-17T07:35:45;18.50;99.90
17236;DHT22;8734;59.272;17.780;2022-07-17T07:38:14;18.90;99.90
17236;DHT22;8734;59.272;17.780;2022-07-17T07:40:44;19.10;99.90
17236;DHT22;8734;59.272;17.780;2022-07-17T07:43:12;19.20;99.90
17236;DHT22;8734;59.272;17.780;2022-07-17T07:45:41;19.40;99.90
17236;DHT22;8734;59.272;17.780;2022-07-17T07:48:09;19.40;99.90
17236;DHT22;8734;59.272;17.780;2022-07-17T07:50:37;19.60;99.90
17236;DHT22;8734;59.272;17.780;2022-07-17T07:53:06;19.60;99.90
17236;DHT22;8734;59.272;17.780;2022-07-17T07:55:34;19.40;99.90
17236;DHT22;8734;59.272;17.780;2022-07-17T07:58:06;19.60;99.90
17236;DHT22;8734;59.272;17.780;2022-07-17T08:00:34;19.70;99.90
17236;DHT22;8734;59.272;17.780;2022-07-17T08:03:04;19.80;99.90
17236;DHT22;8734;59.272;17.780;2022-07-17T08:05:32;20.10;99.90
17236;DHT22;8734;59.272;17.780;2022-07-17T08:08:02;20.20;99.90
17236;DHT22;8734;59.272;17.780;2022-07-17T08:10:30;20.20;99.90
17236;DHT22;8734;59.272;17.780;2022-07-17T08:12:59;20.00;99.90
17236;DHT22;8734;59.272;17.780;2022-07-17T08:15:29;20.00;99.90
17236;DHT22;8734;59.272;17.780;2022-07-17T08:17:57;19.80;99.90
17236;DHT22;8734;59.272;17.780;2022-07-17T08:20:26;20.00;99.90
17236;DHT22;8734;59.272;17.780;2022-07-17T08:22:55;20.10;99.90
17236;DHT22;8734;59.272;17.780;2022-07-17T08:25:33;20.10;99.90
17236;DHT22;8734;59.272;17.780;2022-07-17T08:28:04;20.10;99.90
17236;DHT22;8734;59.272;17.780;2022-07-17T08:30:34;20.20;99.90
17236;DHT22;8734;59.272;17.780;2022-07-17T08:33:04;20.20;99.90
17236;DHT22;8734;59.272;17.780;2022-07-17T08:35:34;20.30;99.90
17236;DHT22;8734;59.272;17.780;2022-07-17T08:38:03;20.40;99.90
17236;DHT22;8734;59.272;17.780;2022-07-17T08:40:33;20.60;99.90
17236;DHT22;8734;59.272;17.780;2022-07-17T08:43:04;20.70;99.90
17236;DHT22;8734;59.272;17.780;2022-07-17T08:45:34;20.90;99.90
17236;DHT22;8734;59.272;17.780;2022-07-17T08:48:13;20.90;99.90
17236;DHT22;8734;59.272;17.780;2022-07-17T08:50:42;21.10;99.90
17236;DHT22;8734;59.272;17.780;2022-07-17T08:53:10;21.10;99.90
17236;DHT22;8734;59.272;17.780;2022-07-17T08:55:39;21.30;99.90
17236;DHT22;8734;59.272;17.780;2022-07-17T08:58:07;21.40;99.90
17236;DHT22;8734;59.272;17.780;2022-07-17T09:00:37;20.60;99.90
17236;DHT22;8734;59.272;17.780;2022-07-17T09:03:07;20.00;99.90
17236;DHT22;8734;59.272;17.780;2022-07-17T09:05:38;20.10;99.90
17236;DHT22;8734;59.272;17.780;2022-07-17T09:08:09;20.10;99.90
17236;DHT22;8734;59.272;17.780;2022-07-17T09:10:39;20.10;99.90
17236;DHT22;8734;59.272;17.780;2022-07-17T09:13:16;20.20;99.90
17236;DHT22;8734;59.272;17.780;2022-07-17T09:15:47;20.60;99.90
17236;DHT22;8734;59.272;17.780;2022-07-17T09:18:18;21.00;99.90
17236;DHT22;8734;59.272;17.780;2022-07-17T09:20:48;21.30;99.90
17236;DHT22;8734;59.272;17.780;2022-07-17T09:23:18;21.10;99.90
17236;DHT22;8734;59.272;17.780;2022-07-17T09:25:48;20.90;99.90
17236;DHT22;8734;59.272;17.780;2022-07-17T09:28:18;20.80;99.90
17236;DHT22;8734;59.272;17.780;2022-07-17T09:30:51;21.20;99.90
17236;DHT22;8734;59.272;17.780;2022-07-17T09:33:22;21.60;99.90
17236;DHT22;8734;59.272;17.780;2022-07-17T09:35:52;21.60;99.90
17236;DHT22;8734;59.272;17.780;2022-07-17T09:38:28;21.30;99.90
17236;DHT22;8734;59.272;17.780;2022-07-17T09:41:09;21.30;99.90
17236;DHT22;8734;59.272;17.780;2022-07-17T09:43:41;21.40;99.90
17236;DHT22;8734;59.272;17.780;2022-07-17T09:46:15;21.60;99.90
17236;DHT22;8734;59.272;17.780;2022-07-17T09:48:46;21.20;99.90
17236;DHT22;8734;59.272;17.780;2022-07-17T09:51:17;20.80;99.90
17236;DHT22;8734;59.272;17.780;2022-07-17T09:53:46;21.00;99.90
17236;DHT22;8734;59.272;17.780;2022-07-17T09:56:16;21.30;99.90
17236;DHT22;8734;59.272;17.780;2022-07-17T09:58:48;21.70;99.90
17236;DHT22;8734;59.272;17.780;2022-07-17T10:01:19;21.90;99.90
17236;DHT22;8734;59.272;17.780;2022-07-17T10:03:49;22.10;99.90
17236;DHT22;8734;59.272;17.780;2022-07-17T10:06:21;22.00;99.90
17236;DHT22;8734;59.272;17.780;2022-07-17T10:08:50;22.30;99.90
17236;DHT22;8734;59.272;17.780;2022-07-17T10:11:20;22.50;99.90
17236;DHT22;8734;59.272;17.780;2022-07-17T10:13:51;22.60;99.90
17236;DHT22;8734;59.272;17.780;2022-07-17T10:16:26;22.90;99.90
17236;DHT22;8734;59.272;17.780;2022-07-17T10:18:56;22.40;99.90
17236;DHT22;8734;59.272;17.780;2022-07-17T10:21:27;21.70;99.90
17236;DHT22;8734;59.272;17.780;2022-07-17T10:24:08;21.70;99.90
17236;DHT22;8734;59.272;17.780;2022-07-17T10:26:42;21.80;99.90
17236;DHT22;8734;59.272;17.780;2022-07-17T10:29:33;21.70;99.90
17236;DHT22;8734;59.272;17.780;2022-07-17T10:32:07;22.10;99.90
17236;DHT22;8734;59.272;17.780;2022-07-17T10:34:40;22.20;99.90
17236;DHT22;8734;59.272;17.780;2022-07-17T10:37:16;22.50;99.90
17236;DHT22;8734;59.272;17.780;2022-07-17T10:40:00;22.90;99.90
17236;DHT22;8734;59.272;17.780;2022-07-17T10:42:57;23.30;99.90
17236;DHT22;8734;59.272;17.780;2022-07-17T10:45:29;23.20;99.90
17236;DHT22;8734;59.272;17.780;2022-07-17T10:48:04;22.70;99.90
17236;DHT22;8734;59.272;17.780;2022-07-17T10:50:35;22.90;99.90
17236;DHT22;8734;59.272;17.780;2022-07-17T10:53:12;23.50;99.90
17236;DHT22;8734;59.272;17.780;2022-07-17T10:55:52;24.30;99.90
17236;DHT22;8734;59.272;17.780;2022-07-17T10:58:23;24.00;99.90
17236;DHT22;8734;59.272;17.780;2022-07-17T11:01:11;23.40;99.90
17236;DHT22;8734;59.272;17.780;2022-07-17T11:03:45;22.90;99.90
17236;DHT22;8734;59.272;17.780;2022-07-17T11:06:16;22.60;99.90
17236;DHT22;8734;59.272;17.780;2022-07-17T11:08:47;23.00;99.90
17236;DHT22;8734;59.272;17.780;2022-07-17T11:11:17;22.90;99.90
17236;DHT22;8734;59.272;17.780;2022-07-17T11:14:07;22.80;99.90
17236;DHT22;8734;59.272;17.780;2022-07-17T11:16:35;23.10;99.90
17236;DHT22;8734;59.272;17.780;2022-07-17T11:19:05;23.20;99.90
17236;DHT22;8734;59.272;17.780;2022-07-17T11:21:44;23.00;99.90
17236;DHT22;8734;59.272;17.780;2022-07-17T11:24:13;23.20;99.90
17236;DHT22;8734;59.272;17.780;2022-07-17T11:26:42;23.20;99.90
17236;DHT22;8734;59.272;17.780;2022-07-17T11:29:12;23.40;99.90
17236;DHT22;8734;59.272;17.780;2022-07-17T11:31:42;22.80;99.90
17236;DHT22;8734;59.272;17.780;2022-07-17T11:34:13;22.80;99.90
17236;DHT22;8734;59.272;17.780;2022-07-17T11:36:43;22.80;99.90
17236;DHT22;8734;59.272;17.780;2022-07-17T11:39:14;23.00;99.90
17236;DHT22;8734;59.272;17.780;2022-07-17T11:41:44;23.00;99.90
17236;DHT22;8734;59.272;17.780;2022-07-17T11:44:16;22.90;99.90
17236;DHT22;8734;59.272;17.780;2022-07-17T11:46:46;23.10;99.90
17236;DHT22;8734;59.272;17.780;2022-07-17T11:49:25;23.20;99.90
17236;DHT22;8734;59.272;17.780;2022-07-17T11:51:55;22.90;99.90
17236;DHT22;8734;59.272;17.780;2022-07-17T11:54:25;23.00;99.90
17236;DHT22;8734;59.272;17.780;2022-07-17T11:56:55;23.10;99.90
17236;DHT22;8734;59.272;17.780;2022-07-17T11:59:26;23.00;99.90
17236;DHT22;8734;59.272;17.780;2022-07-17T12:01:55;23.10;99.90
17236;DHT22;8734;59.272;17.780;2022-07-17T12:04:25;23.40;99.90
17236;DHT22;8734;59.272;17.780;2022-07-17T12:07:00;23.60;99.90
17236;DHT22;8734;59.272;17.780;2022-07-17T12:09:31;23.70;99.90
17236;DHT22;8734;59.272;17.780;2022-07-17T12:12:01;23.30;99.90
17236;DHT22;8734;59.272;17.780;2022-07-17T12:14:30;22.90;99.90
17236;DHT22;8734;59.272;17.780;2022-07-17T12:17:03;22.70;99.90
17236;DHT22;8734;59.272;17.780;2022-07-17T12:19:34;22.70;99.90
17236;DHT22;8734;59.272;17.780;2022-07-17T12:22:04;22.70;99.90
17236;DHT22;8734;59.272;17.780;2022-07-17T12:24:36;22.70;99.90
17236;DHT22;8734;59.272;17.780;2022-07-17T12:27:07;22.70;99.90
17236;DHT22;8734;59.272;17.780;2022-07-17T12:29:35;22.40;99.90
17236;DHT22;8734;59.272;17.780;2022-07-17T12:32:06;22.60;99.90
17236;DHT22;8734;59.272;17.780;2022-07-17T12:34:37;22.50;99.90
17236;DHT22;8734;59.272;17.780;2022-07-17T12:37:12;22.80;99.90
17236;DHT22;8734;59.272;17.780;2022-07-17T12:39:41;22.90;99.90
17236;DHT22;8734;59.272;17.780;2022-07-17T12:42:09;22.80;99.90
17236;DHT22;8734;59.272;17.780;2022-07-17T12:44:38;23.00;99.90
17236;DHT22;8734;59.272;17.780;2022-07-17T12:47:06;22.90;99.90
17236;DHT22;8734;59.272;17.780;2022-07-17T12:49:36;23.10;99.90
17236;DHT22;8734;59.272;17.780;2022-07-17T12:52:08;23.10;99.90
17236;DHT22;8734;59.272;17.780;2022-07-17T12:54:37;23.10;99.90
17236;DHT22;8734;59.272;17.780;2022-07-17T12:57:05;23.10;99.90
17236;DHT22;8734;59.272;17.780;2022-07-17T12:59:34;23.20;99.90
17236;DHT22;8734;59.272;17.780;2022-07-17T13:02:03;23.30;99.90
17236;DHT22;8734;59.272;17.780;2022-07-17T13:04:31;23.40;99.90
17236;DHT22;8734;59.272;17.780;2022-07-17T13:07:01;23.40;99.90
17236;DHT22;8734;59.272;17.780;2022-07-17T13:09:30;23.20;99.90
17236;DHT22;8734;59.272;17.780;2022-07-17T13:11:58;23.20;99.90
17236;DHT22;8734;59.272;17.780;2022-07-17T13:14:27;22.80;99.90
17236;DHT22;8734;59.272;17.780;2022-07-17T13:16:55;22.70;99.90
17236;DHT22;8734;59.272;17.780;2022-07-17T13:19:24;22.70;99.90
17236;DHT22;8734;59.272;17.780;2022-07-17T13:21:54;22.70;99.90
17236;DHT22;8734;59.272;17.780;2022-07-17T13:24:24;22.50;99.90
17236;DHT22;8734;59.272;17.780;2022-07-17T13:26:52;22.60;99.90
17236;DHT22;8734;59.272;17.780;2022-07-17T13:29:21;22.70;99.90
17236;DHT22;8734;59.272;17.780;2022-07-17T13:31:49;22.90;99.90
17236;DHT22;8734;59.272;17.780;2022-07-17T13:34:23;22.90;99.90
17236;DHT22;8734;59.272;17.780;2022-07-17T13:36:51;22.90;99.90
17236;DHT22;8734;59.272;17.780;2022-07-17T13:39:19;22.90;99.90
17236;DHT22;8734;59.272;17.780;2022-07-17T13:41:49;22.90;99.90
17236;DHT22;8734;59.272;17.780;2022-07-17T13:44:19;23.10;99.90
17236;DHT22;8734;59.272;17.780;2022-07-17T13:46:47;23.10;99.90
17236;DHT22;8734;59.272;17.780;2022-07-17T13:49:15;23.10;99.90
17236;DHT22;8734;59.272;17.780;2022-07-17T13:51:44;23.00;99.90
17236;DHT22;8734;59.272;17.780;2022-07-17T13:54:13;23.10;99.90
17236;DHT22;8734;59.272;17.780;2022-07-17T13:56:41;23.10;99.90
17236;DHT22;8734;59.272;17.780;2022-07-17T13:59:11;23.20;99.90
17236;DHT22;8734;59.272;17.780;2022-07-17T14:01:39;22.90;99.90
17236;DHT22;8734;59.272;17.780;2022-07-17T14:04:08;22.90;99.90
17236;DHT22;8734;59.272;17.780;2022-07-17T14:06:36;23.00;99.90
17236;DHT22;8734;59.272;17.780;2022-07-17T14:09:04;23.00;99.90
17236;DHT22;8734;59.272;17.780;2022-07-17T14:11:35;22.80;99.90
17236;DHT22;8734;59.272;17.780;2022-07-17T14:14:04;22.60;99.90
17236;DHT22;8734;59.272;17.780;2022-07-17T14:16:34;22.60;99.90
17236;DHT22;8734;59.272;17.780;2022-07-17T14:19:03;22.80;99.90
17236;DHT22;8734;59.272;17.780;2022-07-17T14:21:33;22.80;99.90
17236;DHT22;8734;59.272;17.780;2022-07-17T14:24:02;22.80;99.90
17236;DHT22;8734;59.272;17.780;2022-07-17T14:26:31;22.90;99.90
17236;DHT22;8734;59.272;17.780;2022-07-17T14:29:00;22.70;99.90
17236;DHT22;8734;59.272;17.780;2022-07-17T14:31:28;22.40;99.90
17236;DHT22;8734;59.272;17.780;2022-07-17T14:33:58;22.70;99.90
17236;DHT22;8734;59.272;17.780;2022-07-17T14:36:26;22.80;99.90
17236;DHT22;8734;59.272;17.780;2022-07-17T14:38:55;22.90;99.90
17236;DHT22;8734;59.272;17.780;2022-07-17T14:41:24;22.80;99.90
17236;DHT22;8734;59.272;17.780;2022-07-17T14:43:53;23.00;99.90
17236;DHT22;8734;59.272;17.780;2022-07-17T14:46:22;23.20;99.90
17236;DHT22;8734;59.272;17.780;2022-07-17T14:48:50;23.00;99.90
17236;DHT22;8734;59.272;17.780;2022-07-17T14:51:20;23.10;99.90
17236;DHT22;8734;59.272;17.780;2022-07-17T14:53:48;22.80;99.90
17236;DHT22;8734;59.272;17.780;2022-07-17T14:56:17;22.50;99.90
17236;DHT22;8734;59.272;17.780;2022-07-17T14:58:45;22.40;99.90
17236;DHT22;8734;59.272;17.780;2022-07-17T15:01:14;22.40;99.90
17236;DHT22;8734;59.272;17.780;2022-07-17T15:03:42;22.50;99.90
17236;DHT22;8734;59.272;17.780;2022-07-17T15:06:11;22.40;99.90
17236;DHT22;8734;59.272;17.780;2022-07-17T15:08:42;22.20;99.90
17236;DHT22;8734;59.272;17.780;2022-07-17T15:11:10;21.90;99.90
17236;DHT22;8734;59.272;17.780;2022-07-17T15:13:38;21.80;99.90
17236;DHT22;8734;59.272;17.780;2022-07-17T15:16:08;21.90;99.90
17236;DHT22;8734;59.272;17.780;2022-07-17T15:18:36;21.80;99.90
17236;DHT22;8734;59.272;17.780;2022-07-17T15:21:05;21.70;99.90
17236;DHT22;8734;59.272;17.780;2022-07-17T15:23:48;21.70;99.90
17236;DHT22;8734;59.272;17.780;2022-07-17T15:26:17;21.80;99.90
17236;DHT22;8734;59.272;17.780;2022-07-17T15:28:47;21.90;99.90
17236;DHT22;8734;59.272;17.780;2022-07-17T15:31:16;21.90;99.90
17236;DHT22;8734;59.272;17.780;2022-07-17T15:33:45;22.10;99.90
17236;DHT22;8734;59.272;17.780;2022-07-17T15:36:14;22.40;99.90
17236;DHT22;8734;59.272;17.780;2022-07-17T15:38:55;22.40;99.90
17236;DHT22;8734;59.272;17.780;2022-07-17T15:41:24;22.20;99.90
17236;DHT22;8734;59.272;17.780;2022-07-17T15:43:52;22.20;99.90
17236;DHT22;8734;59.272;17.780;2022-07-17T15:46:21;22.20;99.90